Flight Track Log - Related Links

Times and Time Zones

All times are in EDT time to prevent confusion due to time zone crossing. See the ASQ6185 flight status page for this flight to view local times or setup timezone preferences in your user account.


Time Position Orientation Groundspeed Altitude Reporting Facility
EDT Latitude Longitude Course Direction KTS MPH feet Rate Location/Type
Sun 07:47:35 PM 40.7739 -111.9989 105° East 177 204 4,900  Level Salt Lake Center
Sun 07:48:23 PM 40.7508 -112.0350 230° Southwest 206 237 6,400 1,959 Climbing Salt Lake Center
Sun 07:49:13 PM 40.7756 -112.0939 299° West 248 285 8,100 2,367 Climbing Salt Lake Center
Sun 07:50:12 PM 40.8292 -112.1614 316° Northwest 248 285 10,700 1,984 Climbing Salt Lake Center
Sun 07:51:00 PM 41.0071 -112.1834 79° East  Level FlightAware Approximate
Sun 07:51:17 PM 40.8978 -112.1933 341° North 289 333 12,200  Level Salt Lake Center
Sun 07:52:00 PM 41.0052 -112.0426 105° East  Level FlightAware Approximate
Sun 07:52:19 PM 40.9581 -112.1544 26° Northeast 306 352 14,000  Level Salt Lake Center
Sun 07:53:21 PM 40.9539 -112.0303 93° East 347 399 14,900 1,073 Climbing Salt Lake Center
Sun 07:54:22 PM 40.9428 -111.8672 95° East 381 438 16,200 1,268 Climbing Salt Lake Center
Sun 07:55:24 PM 40.9325 -111.7281 96° East 393 452 17,500 1,161 Climbing Salt Lake Center
Sun 07:56:26 PM 40.9219 -111.5850 96° East 396 456 18,600 919 Climbing Salt Lake Center
Sun 07:57:28 PM 40.9111 -111.4392 96° East 401 461 19,400 1,113 Climbing Salt Lake Center
Sun 07:58:30 PM 40.8969 -111.2650 96° East 399 459 20,900 1,306 Climbing Salt Lake Center
Sun 07:59:32 PM 40.8844 -111.1189 96° East 401 461 22,100 1,161 Climbing Salt Lake Center
Sun 08:00:34 PM 40.8725 -110.9711 96° East 405 466 23,300 1,161 Climbing Salt Lake Center
Sun 08:01:36 PM 40.8611 -110.8233 96° East 406 467 24,500 1,210 Climbing Salt Lake Center
Sun 08:02:38 PM 40.8489 -110.6756 96° East 405 466 25,800 1,258 Climbing Salt Lake Center
Sun 08:03:40 PM 40.8350 -110.5097 96° East 406 467 27,100 1,258 Climbing Salt Lake Center
Sun 08:04:42 PM 40.8236 -110.3681 96° East 407 468 28,400 1,415 Climbing Salt Lake Center
Sun 08:05:43 PM 40.8092 -110.2036 97° East 399 459 30,000 1,268 Climbing Salt Lake Center
Sun 08:06:45 PM 40.7972 -110.0656 96° East 396 456 31,000 484 Climbing Salt Lake Center
Sun 08:07:47 PM 40.7822 -109.8950 97° East 417 480 31,000  Level Salt Lake Center
Sun 08:08:49 PM 40.7678 -109.7381 97° East 445 512 31,000  Level Salt Lake Center
Sun 08:09:50 PM 40.7525 -109.5733 97° East 469 540 31,000  Level Salt Lake Center
Sun 08:10:52 PM 40.7336 -109.3764 97° East 481 554 31,000  Level Salt Lake Center
Sun 08:11:54 PM 40.7158 -109.1872 97° East 486 559 31,000  Level Salt Lake Center
Sun 08:12:27 PM 40.7075 -109.0914 97° East 485 558 31,000  Level Denver Center
Sun 08:13:29 PM 40.6939 -108.9225 96° East 483 556 31,000  Level Denver Center
Sun 08:14:31 PM 40.6789 -108.7275 96° East 479 551 31,000  Level Denver Center
Sun 08:15:33 PM 40.6914 -108.5603 84° East 478 550 31,000  Level Denver Center
Sun 08:16:35 PM 40.7100 -108.3933 82° East 479 551 31,000  Level Denver Center
Sun 08:17:37 PM 40.7328 -108.1989 81° East 479 551 31,000  Level Denver Center
Sun 08:18:39 PM 40.7531 -108.0225 81° East 478 550 31,000  Level Denver Center
Sun 08:19:41 PM 40.7508 -107.8575 91° East 476 548 31,000  Level Denver Center
Sun 08:20:43 PM 40.7247 -107.6764 101° East 472 543 31,000  Level Denver Center
Sun 08:21:45 PM 40.6936 -107.4844 102° East 477 549 31,000  Level Denver Center
Sun 08:22:47 PM 40.6694 -107.3197 101° East 478 550 31,000  Level Denver Center
Sun 08:23:49 PM 40.6417 -107.1542 102° East 480 552 31,000  Level Denver Center
Sun 08:24:50 PM 40.6144 -106.9803 102° East 482 555 31,000  Level Denver Center
Sun 08:25:52 PM 40.5875 -106.8072 102° East 481 554 31,000 -339 Level Denver Center
Sun 08:26:54 PM 40.5528 -106.5978 102° East 486 559 30,300 -774 Descending Denver Center
Sun 08:27:56 PM 40.5272 -106.4372 102° East 482 555 29,400 -968 Descending Denver Center
Sun 08:28:58 PM 40.4967 -106.2492 102° East 471 542 28,300 -1,597 Descending Denver Center
Sun 08:30:00 PM 40.4650 -106.0653 103° East 480 552 26,100 -2,419 Descending Denver Center
Sun 08:31:02 PM 40.4364 -105.9000 103° East 469 540 23,300 -2,613 Descending Denver Center
Sun 08:32:04 PM 40.4100 -105.7442 102° East 445 512 20,700 -2,565 Descending Denver Center
Sun 08:33:06 PM 40.3831 -105.5958 103° East 424 488 18,000 -1,805 Descending Denver Center
Sun 08:34:07 PM 40.3586 -105.4514 102° East 370 426 17,000 -1,268 Descending Denver Center
Sun 08:35:09 PM 40.3408 -105.3275 101° East 348 400 15,400 -1,403 Descending Denver Center
Sun 08:36:11 PM 40.3253 -105.2072 100° East 337 388 14,100 -1,161 Descending Denver Center
Sun 08:37:13 PM 40.3078 -105.0844 101° East 324 373 13,000 -919 Descending Denver Center
Sun 08:38:15 PM 40.2658 -105.0011 123° Southeast 283 326 12,200 -677 Descending Denver Center
Sun 08:39:17 PM 40.2147 -104.9242 131° Southeast 264 304 11,600 -919 Descending Denver Center
Sun 08:40:19 PM 40.1681 -104.8533 131° Southeast 259 298 10,300 -1,171 Descending Denver Center
Sun 08:41:20 PM 40.1239 -104.7853 130° Southeast 247 284 9,200 -1,122 Descending Denver Center
Sun 08:42:22 PM 40.0581 -104.7419 153° Southeast 247 284 8,000 -919 Descending Denver Center
Sun 08:43:24 PM 40.0036 -104.7114 157° South 214 246 7,300 -677 Descending Denver Center

Login

Don't have an account? Register now (free) for customized features, flight alerts, and more!